Flight Track Log - Related Links

Times and Time Zones

All times are in EDT time to prevent confusion due to time zone crossing. See the OPT410 flight status page for this flight to view local times or setup timezone preferences in your user account.

Time Position Orientation Groundspeed Altitude Reporting Facility
EDT Latitude Longitude Course Direction KTS MPH feet Rate Location/Type
Thu 03:10:57 PM 26.4403 -80.0469 334° Northwest 214 246 3,600  Level Miami Center
Thu 03:11:57 PM 26.4831 -80.0064 40° Northeast 232 267 5,800 2,500 Climbing Miami Center
Thu 03:12:57 PM 26.5319 -80.0564 318° Northwest 279 321 8,600 2,100 Climbing Miami Center
Thu 03:13:57 PM 26.5514 -80.1289 287° West 279 321 10,000 1,350 Climbing Miami Center
Thu 03:14:57 PM 26.5975 -80.2161 301° West 309 356 11,300 1,000 Climbing Miami Center
Thu 03:15:57 PM 26.6875 -80.2886 324° Northwest 345 397 12,000 350 Climbing Miami Center
Thu 03:16:00 PM 26.7352 -80.4806 334° Northwest  Level FlightAware Approximate
Thu 03:16:57 PM 26.7744 -80.3258 339° North 357 411 12,000  Level Miami Center
Thu 03:17:57 PM 26.8758 -80.3661 340° North 357 411 14,700 2,650 Climbing Miami Center
Thu 03:18:57 PM 26.9564 -80.4011 339° North 323 372 17,300 1,750 Climbing Miami Center
Thu 03:19:57 PM 27.0350 -80.4361 338° Northwest 316 364 18,200 850 Climbing Miami Center
Thu 03:20:57 PM 27.1214 -80.4881 332° Northwest 331 381 19,000 700 Climbing Miami Center
Thu 03:21:57 PM 27.2158 -80.5447 332° Northwest 358 412 19,600 1,200 Climbing Miami Center
Thu 03:22:57 PM 27.3125 -80.5992 333° Northwest 373 429 21,400 1,550 Climbing Miami Center
Thu 03:23:57 PM 27.4092 -80.6561 332° Northwest 383 441 22,700 1,300 Climbing Miami Center
Thu 03:24:57 PM 27.5036 -80.7153 331° Northwest 388 447 24,000 1,250 Climbing Miami Center
Thu 03:25:57 PM 27.6044 -80.7725 333° Northwest 388 447 25,200 1,250 Climbing Miami Center
Thu 03:26:57 PM 27.7156 -80.8350 334° Northwest 393 452 26,500 900 Climbing Miami Center
Thu 03:27:57 PM 27.8036 -80.8897 331° Northwest 399 459 27,000 250 Climbing Miami Center
Thu 03:28:57 PM 27.9064 -80.9497 333° Northwest 405 466 27,000  Level Miami Center
Thu 03:29:57 PM 28.0150 -81.0172 331° Northwest 415 478 27,000  Level Miami Center
Thu 03:30:57 PM 28.1217 -81.0800 333° Northwest 421 484 27,000  Level Miami Center
Thu 03:31:57 PM 28.2283 -81.1453 332° Northwest 431 496 27,000  Level Miami Center
Thu 03:32:57 PM 28.3492 -81.2206 331° Northwest 431 496 27,000  Level Miami Center
Thu 03:34:15 PM 28.4822 -81.3008 332° Northwest 442 509 27,000 -217 Level Jacksonville Center
Thu 03:35:15 PM 28.6039 -81.3414 344° North 442 509 26,500 -750 Descending Jacksonville Center
Thu 03:36:15 PM 28.7333 -81.3583 353° North 447 514 25,500 -1,000 Descending Jacksonville Center
Thu 03:37:15 PM 28.8608 -81.3706 355° North 454 522 24,500 -1,050 Descending Jacksonville Center
Thu 03:38:15 PM 28.9844 -81.4019 347° North 459 528 23,400 -1,100 Descending Jacksonville Center
Thu 03:39:15 PM 29.0997 -81.4500 340° North 443 510 22,300 -1,200 Descending Jacksonville Center
Thu 03:40:15 PM 29.2131 -81.4983 340° North 435 501 21,000 -1,350 Descending Jacksonville Center
Thu 03:41:15 PM 29.3219 -81.5444 340° North 429 494 19,600 -1,579 Descending Jacksonville Center
Thu 03:41:50 PM 29.3933 -81.5769 338° Northwest 409 471 18,500 -1,688 Descending Jacksonville Center
Thu 03:42:51 PM 29.5044 -81.6256 339° North 409 471 16,900 -1,525 Descending Jacksonville Center
Thu 03:43:52 PM 29.6050 -81.6694 339° North 397 457 15,400 -1,565 Descending Jacksonville Center
Thu 03:44:46 PM 29.7036 -81.7067 342° North 394 453 13,900 -1,574 Descending Jacksonville Center
Thu 03:45:54 PM 29.8183 -81.7075 360° North 369 425 12,200 -1,581 Descending Jacksonville Center
Thu 03:46:55 PM 29.9144 -81.7064 North 328 377 10,500 -1,934 Descending Jacksonville Center
Thu 03:47:55 PM 30.0000 -81.7031 North 313 360 8,300 -2,132 Descending Jacksonville Center
Thu 03:48:56 PM 30.0856 -81.6994 North 287 330 6,200 -1,721 Descending Jacksonville Center
Thu 03:49:57 PM 30.1586 -81.6986 North 265 305 4,800 -1,230 Descending Jacksonville Center
Thu 03:50:58 PM 30.2356 -81.6761 14° North 277 319 3,700 -885 Descending Jacksonville Center
Thu 03:51:59 PM 30.3128 -81.6511 16° North 291 335 3,000 -639 Descending Jacksonville Center
Thu 03:53:00 PM 30.3792 -81.6283 16° North 242 278 2,400 -938 Descending Jacksonville Center
Thu 03:54:07 PM 30.4461 -81.6419 350° North 201 231 1,000 -1,078 Descending Jacksonville Center
Thu 03:55:08 PM 30.4758 -81.6803 312° West 128 147 100 -885 Descending Jacksonville Center
Thu 03:57:00 PM 30.4833 -81.6833 311° West  Level FlightAware Approximate

Login

Don't have an account? Register now (free) for customized features, flight alerts, and more!